| time (UTC) | temp C | wind direction | speed KPH | gust KPH | rain 1hr cm | rain 24hr cm | rain mn cm | humidity % | barometer mb |
| 20260510045046 | 24 | 136 | 6.4 | 12.9 | 0.00 | 0.03 | 0.03 | 80 | 1011.3 |
| 20260510044544 | 24 | 140 | 6.4 | 11.3 | 0.00 | 0.03 | 0.03 | 81 | 1011.3 |
| 20260510044042 | 24 | 117 | 6.4 | 11.3 | 0.00 | 0.03 | 0.03 | 82 | 1011.3 |
| 20260510043542 | 24 | 126 | 6.4 | 11.3 | 0.00 | 0.03 | 0.03 | 81 | 1011.3 |
| 20260510043038 | 24 | 133 | 4.8 | 8.0 | 0.00 | 0.03 | 0.03 | 81 | 1011.3 |
| 20260510042821 | 24 | 126 | 4.8 | 8.0 | 0.00 | 0.03 | 0.03 | 81 | 1011.3 |
| 20260510042037 | 24 | 129 | 4.8 | 8.0 | 0.00 | 0.03 | 0.03 | 81 | 1011.2 |
| 20260510041532 | 24 | 124 | 4.8 | 8.0 | 0.00 | 0.03 | 0.03 | 81 | 1011.2 |
| 20260510041310 | 24 | 128 | 4.8 | 6.4 | 0.00 | 0.03 | 0.03 | 81 | 1011.2 |
| 20260510040800 | 24 | 126 | 4.8 | 8.0 | 0.00 | 0.03 | 0.03 | 81 | 1011.2 |
| 20260510040713 | 24 | 126 | 4.8 | 8.0 | 0.00 | 0.03 | 0.03 | 81 | 1011.2 |
| 20260510034015 | 25 | 134 | 4.8 | 11.3 | 0.00 | 0.03 | 0.03 | 79 | 1011.2 |
| 20260510033516 | 25 | 144 | 4.8 | 11.3 | 0.00 | 0.03 | 0.03 | 78 | 1011.1 |
| 20260510033014 | 25 | 121 | 4.8 | 11.3 | 0.00 | 0.03 | 0.03 | 78 | 1011.1 |
| 20260510032819 | 25 | 143 | 6.4 | 11.3 | 0.00 | 0.03 | 0.03 | 78 | 1010.9 |
| 20260510032149 | 26 | 123 | 6.4 | 11.3 | 0.00 | 0.03 | 0.03 | 78 | 1010.9 |
| 20260510031838 | 26 | 122 | 4.8 | 0.0 | 0.00 | 0.03 | 0.03 | 78 | 1011.2 |
| 20260510031832 | -17 | 126 | 6.4 | 3.2 | 0.00 | 0.03 | 0.03 | 1010.8 | |
| 20260510031825 | 26 | 125 | 6.4 | 14.5 | 0.00 | 0.03 | 0.03 | 78 | 1010.9 |
| 20260510025403 | 26 | 128 | 6.4 | 12.9 | 0.00 | 0.03 | 0.03 | 78 | 1010.8 |
| 20260510025348 | 26 | 105 | 6.4 | 12.9 | 0.00 | 0.03 | 0.03 | 77 | 1010.7 |
| 20260510024402 | 26 | 136 | 6.4 | 12.9 | 0.00 | 0.03 | 0.03 | 77 | 1010.8 |
| 20260510023913 | 26 | 133 | 8.0 | 14.5 | 0.00 | 0.03 | 0.03 | 76 | 1010.4 |
| 20260510023906 | 26 | 133 | 8.0 | 12.9 | 0.00 | 0.03 | 0.03 | 76 | 1010.4 |
| 20260510023120 | 26 | 136 | 8.0 | 14.5 | 0.00 | 0.03 | 0.03 | 75 | 1010.3 |
| 20260510022356 | 26 | 124 | 8.0 | 16.1 | 0.00 | 0.03 | 0.03 | 75 | 1010.2 |
| 20260510021855 | 26 | 144 | 8.0 | 14.5 | 0.00 | 0.03 | 0.03 | 74 | 1010.2 |
| 20260510021349 | 27 | 138 | 4.8 | 11.3 | 0.00 | 0.03 | 0.03 | 71 | 1009.8 |
| 20260510021338 | 27 | 0 | 8.0 | 14.5 | 0.00 | 0.03 | 0.03 | 74 | 1010.4 |
| 20260510021312 | 27 | 130 | 8.0 | 14.5 | 0.00 | 0.03 | 0.03 | 73 | 1010.3 |
| 20260510020725 | 27 | 161 | 6.4 | 14.5 | 0.00 | 0.03 | 0.03 | 73 | 1010.1 |
| 20260510020517 | 27 | 135 | 6.4 | 14.5 | 0.00 | 0.03 | 0.03 | 73 | 1010.2 |
| 20260510020345 | 27 | 161 | 6.4 | 14.5 | 0.00 | 0.03 | 0.03 | 73 | 1010.1 |
| 20260510020149 | 27 | 133 | 6.4 | 12.9 | 0.00 | 0.03 | 0.03 | 73 | 1010.1 |
| 20260510013251 | 27 | 133 | 4.8 | 9.7 | 0.00 | 0.03 | 0.03 | 70 | 1009.7 |
| 20260510012739 | 27 | 141 | 6.4 | 11.3 | 0.00 | 0.03 | 0.03 | 70 | 1010.0 |
| 20260510010553 | 28 | 134 | 6.4 | 14.5 | 0.00 | 0.03 | 0.03 | 66 | 1009.7 |
| 20260510005956 | 28 | 132 | 6.4 | 14.5 | 0.00 | 0.03 | 0.03 | 65 | 1009.8 |
| 20260510004951 | 29 | 153 | 6.4 | 12.9 | 0.00 | 0.03 | 0.03 | 64 | 1009.7 |
| 20260510004453 | 29 | 173 | 6.4 | 12.9 | 0.00 | 0.03 | 0.03 | 63 | 1009.6 |
| 20260510003948 | 30 | 148 | 6.4 | 12.9 | 0.00 | 0.03 | 0.03 | 62 | 1009.6 |
| 20260510003832 | 30 | 126 | 6.4 | 14.5 | 0.00 | 0.03 | 0.03 | 61 | 1009.6 |
| 20260510003826 | 30 | 145 | 6.4 | 12.9 | 0.00 | 0.03 | 0.03 | 61 | 1009.6 |
| 20260510002602 | 30 | 102 | 8.0 | 17.7 | 0.00 | 0.03 | 0.03 | 61 | 1009.5 |
| 20260510002256 | 31 | 154 | 9.7 | 17.7 | 0.00 | 0.03 | 0.03 | 56 | 1009.0 |
| 20260510002205 | 32 | 114 | 11.3 | 17.7 | 0.00 | 0.03 | 0.03 | 52 | 1009.0 |
| 20260510002113 | 32 | 112 | 9.7 | 17.7 | 0.00 | 0.03 | 0.03 | 52 | 1009.0 |
| 20260510002007 | 31 | 129 | 9.7 | 17.7 | 0.00 | 0.03 | 0.03 | 57 | 1009.5 |
| 20260510001115 | 33 | 145 | 9.7 | 17.7 | 0.00 | 0.03 | 0.03 | 47 | 1008.8 |
| 20260510001019 | 33 | 110 | 9.7 | 16.1 | 0.00 | 0.03 | 0.03 | 52 | 1008.8 |
| 20260510000931 | 31 | 106 | 9.7 | 19.3 | 0.00 | 0.03 | 0.03 | 55 | 1009.5 |
| 20260510000917 | 31 | 0 | 9.7 | 19.3 | 0.00 | 0.03 | 0.03 | 56 | 1009.6 |
| 20260510000249 | 34 | 90 | 8.0 | 11.3 | 0.00 | 0.03 | 0.03 | 44 | 1009.3 |
| 20260510000243 | 31 | 124 | 11.3 | 17.7 | 0.00 | 0.03 | 0.03 | 55 | 1009.5 |
| 20260509235927 | 32 | 119 | 9.7 | 17.7 | 0.00 | 0.03 | 0.03 | 56 | 1009.0 |
| 20260509235834 | 32 | 130 | 9.7 | 17.7 | 0.00 | 0.03 | 0.03 | 55 | 1009.0 |
| 20260509235738 | 32 | 140 | 9.7 | 17.7 | 0.00 | 0.03 | 0.03 | 54 | 1009.1 |
| 20260509223645 | 34 | 89 | 9.7 | 17.7 | 0.00 | 0.03 | 0.03 | 45 | 1009.4 |
| 20260509223639 | 33 | 117 | 11.3 | 17.7 | 0.00 | 0.03 | 0.03 | 44 | 1009.4 |
| 20260509221900 | 33 | 73 | 11.3 | 20.9 | 0.00 | 0.03 | 0.03 | 49 | 1008.8 |
| 20260509221352 | 34 | 90 | 9.7 | 20.9 | 0.00 | 0.03 | 0.03 | 45 | 1009.4 |
| 20260509220114 | 33 | 119 | 11.3 | 20.9 | 0.00 | 0.03 | 0.03 | 44 | 1009.2 |
| 20260509215614 | 34 | 148 | 9.7 | 19.3 | 0.00 | 0.03 | 0.03 | 50 | 1009.3 |
| 20260509215112 | 33 | 0 | 9.7 | 19.3 | 0.00 | 0.03 | 0.03 | 48 | 1009.3 |
| 20260509214613 | 33 | 133 | 8.0 | 19.3 | 0.00 | 0.03 | 0.03 | 47 | 1009.3 |
| 20260509214108 | 33 | 140 | 8.0 | 19.3 | 0.00 | 0.03 | 0.03 | 52 | 1009.4 |
| 20260509213730 | 33 | 133 | 16.1 | 25.7 | 0.00 | 0.03 | 0.03 | 47 | 1009.6 |
| 20260509213647 | 33 | 155 | 12.9 | 24.1 | 0.00 | 0.03 | 0.03 | 53 | 1009.6 |
| 20260509212559 | 33 | 150 | 14.5 | 25.7 | 0.00 | 0.03 | 0.03 | 46 | 1009.7 |
| 20260509212101 | 34 | 132 | 12.9 | 24.1 | 0.00 | 0.03 | 0.03 | 53 | 1009.7 |
| 20260509211558 | 35 | 158 | 9.7 | 19.3 | 0.00 | 0.03 | 0.03 | 50 | 1009.7 |
| 20260509211052 | 35 | 144 | 8.0 | 17.7 | 0.00 | 0.03 | 0.03 | 54 | 1009.7 |
| 20260509210548 | 35 | 137 | 9.7 | 17.7 | 0.00 | 0.03 | 0.03 | 50 | 1009.8 |
| 20260509210047 | 35 | 155 | 11.3 | 22.5 | 0.00 | 0.03 | 0.03 | 48 | 1010.1 |
| 20260509205829 | 35 | 81 | 11.3 | 22.5 | 0.00 | 0.03 | 0.03 | 52 | 1010.2 |
| 20260509205044 | 35 | 113 | 11.3 | 20.9 | 0.00 | 0.03 | 0.03 | 47 | 1010.2 |
| 20260509204545 | 34 | 106 | 11.3 | 19.3 | 0.00 | 0.03 | 0.03 | 49 | 1010.1 |
| 20260509204045 | 35 | 102 | 12.9 | 20.9 | 0.00 | 0.03 | 0.03 | 48 | 1010.3 |
| 20260509203544 | 34 | 0 | 12.9 | 20.9 | 0.00 | 0.03 | 0.03 | 46 | 1010.3 |
| 20260509203042 | 35 | 88 | 8.0 | 19.3 | 0.00 | 0.03 | 0.03 | 45 | 1010.4 |
| 20260509202603 | 34 | 23 | 6.4 | 12.9 | 0.00 | 0.03 | 0.03 | 55 | 1010.1 |
| 20260509202549 | 35 | 128 | 6.4 | 14.5 | 0.00 | 0.03 | 0.03 | 52 | 1010.6 |
| 20260509202214 | 33 | 17 | 6.4 | 0.0 | 0.00 | 0.03 | 0.03 | 54 | 1010.1 |
| 20260509200108 | 35 | 309 | 6.4 | 16.1 | 0.00 | 0.03 | 0.03 | 58 | 1010.9 |
| 20260509200050 | 33 | 5 | 8.0 | 17.7 | 0.00 | 0.03 | 0.03 | 58 | 1010.8 |
| 20260509195024 | 34 | 13 | 6.4 | 16.1 | 0.00 | 0.03 | 0.03 | 58 | 1011.0 |
| 20260509194525 | 33 | 50 | 8.0 | 17.7 | 0.00 | 0.03 | 0.03 | 61 | 1010.8 |
| 20260509194024 | 32 | 313 | 8.0 | 17.7 | 0.00 | 0.03 | 0.03 | 60 | 1010.7 |
| 20260509193812 | 32 | 213 | 6.4 | 19.3 | 0.00 | 0.03 | 0.03 | 56 | 1010.7 |
| 20260509193311 | 32 | 277 | 9.7 | 19.3 | 0.00 | 0.03 | 0.03 | 59 | 1010.8 |
| 20260509192519 | 32 | 343 | 9.7 | 19.3 | 0.00 | 0.03 | 0.03 | 60 | 1010.7 |
| 20260509192020 | 32 | 312 | 11.3 | 25.7 | 0.00 | 0.03 | 0.03 | 62 | 1010.9 |
| 20260509191519 | 32 | 302 | 12.9 | 25.7 | 0.00 | 0.03 | 0.03 | 61 | 1010.9 |
| 20260509191014 | 32 | 296 | 9.7 | 24.1 | 0.00 | 0.03 | 0.03 | 61 | 1010.8 |
| 20260509190513 | 32 | 313 | 9.7 | 20.9 | 0.00 | 0.03 | 0.03 | 63 | 1010.9 |
| 20260509190009 | 31 | 5 | 8.0 | 17.7 | 0.00 | 0.03 | 0.03 | 63 | 1010.9 |
| 20260509185750 | 31 | 298 | 8.0 | 17.7 | 0.00 | 0.03 | 0.03 | 64 | 1011.0 |
| 20260509185003 | 31 | 287 | 9.7 | 19.3 | 0.00 | 0.03 | 0.03 | 66 | 1011.3 |
| 20260509184502 | 31 | 294 | 8.0 | 19.3 | 0.00 | 0.03 | 0.03 | 63 | 1011.4 |
| 20260509184000 | 31 | 324 | 4.8 | 12.9 | 0.00 | 0.03 | 0.03 | 66 | 1011.4 |
| 20260509183503 | 31 | 219 | 6.4 | 12.9 | 0.00 | 0.03 | 0.03 | 65 | 1011.4 |
| 20260509183254 | 31 | 297 | 6.4 | 17.7 | 0.00 | 0.03 | 0.03 | 66 | 1011.3 |
| 20260509182501 | 30 | 217 | 9.7 | 20.9 | 0.00 | 0.03 | 0.03 | 66 | 1011.4 |
| 20260509182259 | 30 | 330 | 8.0 | 20.9 | 0.00 | 0.03 | 0.03 | 65 | 1011.6 |
| 20260509181503 | 30 | 311 | 6.4 | 16.1 | 0.00 | 0.03 | 0.03 | 66 | 1011.6 |
| 20260509181029 | 31 | 257 | 8.0 | 16.1 | 0.00 | 0.03 | 0.03 | 66 | 1011.7 |
| 20260509180253 | 30 | 338 | 6.4 | 17.7 | 0.00 | 0.03 | 0.03 | 71 | 1011.8 |
| 20260509175458 | 30 | 295 | 6.4 | 17.7 | 0.00 | 0.03 | 0.03 | 71 | 1011.6 |
| 20260509175008 | 30 | 298 | 6.4 | 12.9 | 0.00 | 0.03 | 0.03 | 72 | 1011.8 |
| 20260509173940 | 30 | 315 | 4.8 | 12.9 | 0.00 | 0.03 | 0.03 | 74 | 1012.0 |
| 20260509173436 | 30 | 323 | 4.8 | 14.5 | 0.00 | 0.03 | 0.03 | 73 | 1012.0 |
| 20260509172935 | 29 | 294 | 6.4 | 17.7 | 0.00 | 0.03 | 0.03 | 74 | 1012.1 |
| 20260509172435 | 29 | 11 | 6.4 | 17.7 | 0.00 | 0.03 | 0.03 | 76 | 1012.4 |
| 20260509171934 | 29 | 318 | 6.4 | 14.5 | 0.00 | 0.03 | 0.03 | 77 | 1012.4 |
| 20260509171430 | 28 | 344 | 6.4 | 14.5 | 0.00 | 0.03 | 0.03 | 76 | 1012.2 |
| 20260509170931 | 29 | 299 | 4.8 | 12.9 | 0.00 | 0.03 | 0.03 | 77 | 1012.3 |
| 20260509170432 | 28 | 325 | 4.8 | 12.9 | 0.00 | 0.03 | 0.03 | 75 | 1012.2 |
| 20260509165931 | 28 | 111 | 6.4 | 12.9 | 0.00 | 0.03 | 0.03 | 79 | 1012.1 |
| 20260509165430 | 28 | 253 | 6.4 | 12.9 | 0.00 | 0.03 | 0.03 | 77 | 1012.1 |
| 20260509164932 | 27 | 266 | 6.4 | 11.3 | 0.00 | 0.03 | 0.03 | 78 | 1012.2 |
| 20260509164430 | 27 | 236 | 6.4 | 11.3 | 0.00 | 0.03 | 0.03 | 79 | 1012.2 |
| 20260509164208 | 27 | 215 | 4.8 | 14.5 | 0.00 | 0.03 | 0.03 | 81 | 1012.3 |
| 20260509163406 | 27 | 216 | 4.8 | 14.5 | 0.00 | 0.03 | 0.03 | 81 | 1012.3 |
| 20260509163148 | 27 | 350 | 4.8 | 11.3 | 0.00 | 0.03 | 0.03 | 80 | 1012.2 |
| 20260509162637 | 27 | 303 | 3.2 | 11.3 | 0.00 | 0.03 | 0.03 | 81 | 1012.3 |
| 20260509161840 | 26 | 208 | 4.8 | 11.3 | 0.00 | 0.03 | 0.03 | 82 | 1012.2 |
| 20260509161622 | 26 | 152 | 6.4 | 14.5 | 0.00 | 0.03 | 0.03 | 84 | 1012.2 |
| 20260509160839 | 26 | 151 | 6.4 | 16.1 | 0.00 | 0.03 | 0.03 | 85 | 1012.2 |
| 20260509160622 | 26 | 217 | 6.4 | 16.1 | 0.00 | 0.03 | 0.03 | 86 | 1012.3 |
| 20260509155836 | 25 | 258 | 6.4 | 12.9 | 0.00 | 0.03 | 0.03 | 87 | 1012.1 |
| 20260509155332 | 25 | 191 | 8.0 | 17.7 | 0.00 | 0.03 | 0.03 | 87 | 1012.1 |
| 20260509155120 | 25 | 153 | 9.7 | 19.3 | 0.00 | 0.03 | 0.03 | 87 | 1012.1 |
| 20260509154328 | 25 | 197 | 9.7 | 19.3 | 0.00 | 0.03 | 0.03 | 87 | 1012.1 |
| 20260509153827 | 25 | 188 | 11.3 | 25.7 | 0.00 | 0.03 | 0.03 | 88 | 1012.2 |
| 20260509153325 | 25 | 165 | 12.9 | 25.7 | 0.00 | 0.03 | 0.03 | 89 | 1012.2 |
| 20260509152827 | 24 | 150 | 11.3 | 22.5 | 0.00 | 0.03 | 0.03 | 89 | 1012.0 |
| 20260509152325 | 24 | 197 | 9.7 | 24.1 | 0.00 | 0.03 | 0.03 | 90 | 1012.1 |
| 20260509151825 | 24 | 163 | 11.3 | 24.1 | 0.00 | 0.03 | 0.03 | 90 | 1012.1 |
| 20260509151324 | 24 | 150 | 9.7 | 22.5 | 0.00 | 0.03 | 0.03 | 90 | 1011.9 |
| 20260509151110 | 24 | 163 | 8.0 | 17.7 | 0.00 | 0.03 | 0.03 | 92 | 1011.9 |
| 20260509150321 | 24 | 141 | 9.7 | 17.7 | 0.00 | 0.03 | 0.03 | 92 | 1011.9 |
| 20260509145819 | 23 | 178 | 11.3 | 25.7 | 0.00 | 0.03 | 0.03 | 93 | 1011.9 |
| 20260509145557 | 23 | 149 | 11.3 | 25.7 | 0.00 | 0.03 | 0.03 | 93 | 1011.7 |
| 20260509144819 | 23 | 159 | 8.0 | 17.7 | 0.00 | 0.03 | 0.03 | 94 | 1011.8 |
| 20260509144320 | 23 | 152 | 8.0 | 19.3 | 0.00 | 0.03 | 0.03 | 95 | 1011.7 |
| 20260509143821 | 23 | 139 | 12.9 | 20.9 | 0.00 | 0.03 | 0.03 | 95 | 1011.7 |
| 20260509143320 | 23 | 130 | 9.7 | 20.9 | 0.00 | 0.03 | 0.03 | 95 | 1011.6 |
| 20260509142820 | 23 | 161 | 8.0 | 17.7 | 0.00 | 0.03 | 0.03 | 95 | 1011.4 |
| 20260509142320 | 23 | 162 | 9.7 | 20.9 | 0.00 | 0.03 | 0.03 | 95 | 1011.4 |
| 20260509141819 | 23 | 161 | 11.3 | 22.5 | 0.00 | 0.03 | 0.03 | 95 | 1011.2 |
| 20260509141317 | 23 | 148 | 12.9 | 22.5 | 0.00 | 0.03 | 0.03 | 95 | 1011.2 |
| 20260509140813 | 23 | 129 | 11.3 | 19.3 | 0.00 | 0.03 | 0.03 | 95 | 1011.2 |
| 20260509140313 | 23 | 150 | 11.3 | 19.3 | 0.00 | 0.03 | 0.03 | 95 | 1010.9 |
| 20260509140053 | 22 | 144 | 9.7 | 17.7 | 0.00 | 0.03 | 0.03 | 95 | 1010.7 |
| 20260509135311 | 22 | 161 | 9.7 | 17.7 | 0.00 | 0.03 | 0.03 | 95 | 1010.7 |
| 20260509134812 | 22 | 0 | 12.9 | 19.3 | 0.00 | 0.03 | 0.03 | 95 | 1010.9 |
| 20260509134333 | 22 | 150 | 9.7 | 19.3 | 0.00 | 0.03 | 0.03 | 95 | 1011.0 |
| 20260509134324 | 22 | 157 | 12.9 | 19.3 | 0.00 | 0.03 | 0.03 | 95 | 1011.0 |
| 20260509133310 | 22 | 136 | 6.4 | 14.5 | 0.00 | 0.03 | 0.03 | 95 | 1011.3 |
| 20260509132809 | 22 | 142 | 3.2 | 12.9 | 0.00 | 0.03 | 0.03 | 95 | 1011.4 |
| 20260509132309 | 22 | 173 | 1.6 | 6.4 | 0.00 | 0.03 | 0.03 | 95 | 1011.6 |
| 20260509131808 | 22 | 342 | 3.2 | 9.7 | 0.00 | 0.03 | 0.03 | 95 | 1011.8 |
| 20260509131309 | 22 | 345 | 4.8 | 9.7 | 0.00 | 0.03 | 0.03 | 95 | 1012.0 |
| 20260509130805 | 22 | 0 | 4.8 | 8.0 | 0.00 | 0.03 | 0.03 | 95 | 1012.0 |
| 20260509130303 | 22 | 321 | 3.2 | 6.4 | 0.00 | 0.03 | 0.03 | 95 | 1012.0 |
| 20260509125805 | 22 | 298 | 3.2 | 6.4 | 0.00 | 0.03 | 0.03 | 95 | 1011.8 |
| 20260509125301 | 22 | 22 | 1.6 | 4.8 | 0.00 | 0.03 | 0.03 | 95 | 1011.7 |
| 20260509124803 | 22 | 66 | 1.6 | 3.2 | 0.00 | 0.03 | 0.03 | 95 | 1011.7 |
| 20260509124300 | 22 | 66 | 1.6 | 4.8 | 0.00 | 0.03 | 0.03 | 95 | 1011.6 |
| 20260509123759 | 22 | 66 | 1.6 | 4.8 | 0.00 | 0.03 | 0.03 | 95 | 1011.5 |
| 20260509123253 | 22 | 66 | 1.6 | 4.8 | 0.00 | 0.03 | 0.03 | 94 | 1011.4 |
| 20260509122754 | 22 | 53 | 0.0 | 3.2 | 0.00 | 0.03 | 0.03 | 94 | 1011.4 |
| 20260509122252 | 22 | 52 | 1.6 | 4.8 | 0.00 | 0.03 | 0.03 | 94 | 1011.4 |
| 20260509121814 | 22 | 56 | 1.6 | 4.8 | 0.00 | 0.03 | 0.03 | 94 | 1011.2 |
| 20260509121805 | 22 | 52 | 1.6 | 4.8 | 0.00 | 0.03 | 0.03 | 94 | 1011.3 |
| 20260509120741 | 22 | 74 | 0.0 | 4.8 | 0.00 | 0.03 | 0.03 | 94 | 1011.2 |
| 20260509120242 | 22 | 74 | 0.0 | 1.6 | 0.00 | 0.03 | 0.03 | 94 | 1011.2 |
| 20260509115741 | 22 | 74 | 0.0 | 1.6 | 0.00 | 0.03 | 0.03 | 94 | 1011.3 |
| 20260509115234 | 22 | 74 | 0.0 | 1.6 | 0.00 | 0.03 | 0.03 | 94 | 1011.5 |
| 20260509114718 | 22 | 74 | 1.6 | 3.2 | 0.00 | 0.03 | 0.03 | 94 | 1011.6 |
| 20260509114214 | 22 | 74 | 1.6 | 3.2 | 0.00 | 0.03 | 0.03 | 94 | 1011.6 |
| 20260509113708 | 22 | 342 | 1.6 | 4.8 | 0.00 | 0.03 | 0.03 | 94 | 1011.6 |
| 20260509113207 | 22 | 342 | 0.0 | 4.8 | 0.00 | 0.03 | 0.03 | 94 | 1011.9 |
| 20260509112706 | 22 | 341 | 1.6 | 4.8 | 0.00 | 0.03 | 0.03 | 94 | 1012.0 |
| 20260509112207 | 22 | 340 | 3.2 | 6.4 | 0.00 | 0.03 | 0.03 | 94 | 1012.2 |
| 20260509111708 | 22 | 323 | 4.8 | 6.4 | 0.00 | 0.03 | 0.03 | 94 | 1012.4 |
| 20260509111437 | 22 | 331 | 3.2 | 6.4 | 0.00 | 0.03 | 0.03 | 94 | 1012.1 |
| 20260509110705 | 22 | 24 | 1.6 | 4.8 | 0.00 | 0.03 | 0.03 | 94 | 1012.2 |
| 20260509110206 | 22 | 25 | 0.0 | 3.2 | 0.00 | 0.03 | 0.03 | 94 | 1012.3 |
| 20260509105704 | 22 | 25 | 0.0 | 3.2 | 0.00 | 0.03 | 0.03 | 94 | 1012.4 |
| 20260509105440 | 22 | 25 | 0.0 | 0.0 | 0.00 | 0.03 | 0.03 | 94 | 1012.5 |
| 20260509104655 | 22 | 25 | 0.0 | 3.2 | 0.00 | 0.03 | 0.03 | 94 | 1012.6 |
| 20260509104131 | 22 | 25 | 1.6 | 6.4 | 0.00 | 0.03 | 0.03 | 94 | 1012.6 |
| 20260509103625 | 22 | 25 | 3.2 | 6.4 | 0.00 | 0.03 | 0.03 | 94 | 1012.5 |
| 20260509103125 | 22 | 24 | 3.2 | 6.4 | 0.00 | 0.03 | 0.03 | 93 | 1012.6 |
| 20260509102623 | 22 | 5 | 3.2 | 6.4 | 0.00 | 0.03 | 0.03 | 93 | 1012.6 |
| 20260509102121 | 22 | 9 | 3.2 | 6.4 | 0.00 | 0.03 | 0.03 | 93 | 1012.5 |
| 20260509101618 | 22 | 26 | 3.2 | 6.4 | 0.00 | 0.03 | 0.03 | 93 | 1012.3 |
| 20260509101117 | 22 | 37 | 3.2 | 6.4 | 0.00 | 0.03 | 0.03 | 93 | 1012.2 |
| 20260509100849 | 22 | 42 | 1.6 | 6.4 | 0.00 | 0.03 | 0.03 | 93 | 1011.9 |
| 20260509100113 | 22 | 91 | 1.6 | 4.8 | 0.00 | 0.03 | 0.03 | 93 | 1011.7 |
| 20260509095609 | 22 | 91 | 1.6 | 4.8 | 0.00 | 0.03 | 0.03 | 93 | 1011.5 |
| 20260509095109 | 22 | 91 | 3.2 | 4.8 | 0.00 | 0.03 | 0.03 | 93 | 1011.3 |
| 20260509094609 | 22 | 88 | 1.6 | 4.8 | 0.03 | 0.03 | 0.03 | 93 | 1011.3 |
| 20260509094108 | 22 | 79 | 1.6 | 4.8 | 0.03 | 0.03 | 0.03 | 93 | 1011.3 |
| 20260509093849 | 22 | 78 | 1.6 | 4.8 | 0.03 | 0.03 | 0.03 | 93 | 1011.2 |
| 20260509093340 | 22 | 78 | 1.6 | 6.4 | 0.03 | 0.03 | 0.03 | 93 | 1011.3 |
| 20260509092608 | 22 | 78 | 0.0 | 6.4 | 0.03 | 0.03 | 0.03 | 93 | 1011.2 |
| 20260509092105 | 22 | 60 | 0.0 | 0.0 | 0.03 | 0.03 | 0.03 | 93 | 1011.1 |
| 20260509091836 | 22 | 60 | 0.0 | 0.0 | 0.03 | 0.03 | 0.03 | 93 | 1011.1 |
| 20260509091103 | 22 | 60 | 0.0 | 0.0 | 0.03 | 0.03 | 0.03 | 93 | 1011.1 |
| 20260509090548 | 22 | 60 | 0.0 | 1.6 | 0.03 | 0.03 | 0.03 | 93 | 1011.2 |
| 20260509090029 | 22 | 60 | 0.0 | 1.6 | 0.03 | 0.03 | 0.03 | 93 | 1011.1 |
| 20260509085810 | 22 | 60 | 0.0 | 3.2 | 0.03 | 0.00 | 0.03 | 92 | 1011.1 |
| 20260509085026 | 22 | 60 | 0.0 | 3.2 | 0.03 | 0.00 | 0.03 | 92 | 1011.1 |
| 20260509084520 | 22 | 60 | 0.0 | 3.2 | 0.00 | 0.00 | 0.00 | 92 | 1011.3 |
| 20260509084018 | 22 | 59 | 0.0 | 6.4 | 0.00 | 0.00 | 0.00 | 92 | 1011.3 |
| 20260509083755 | 22 | 59 | 1.6 | 6.4 | 0.00 | 0.00 | 0.00 | 92 | 1011.3 |
| 20260509083010 | 22 | 57 | 0.0 | 6.4 | 0.00 | 0.00 | 0.00 | 92 | 1011.4 |
| 20260509082510 | 22 | 42 | 0.0 | 0.0 | 0.00 | 0.00 | 0.00 | 92 | 1011.6 |
| 20260509082009 | 22 | 42 | 0.0 | 0.0 | 0.00 | 0.00 | 0.00 | 92 | 1011.7 |
| 20260509081510 | 22 | 42 | 0.0 | 0.0 | 0.00 | 0.00 | 0.00 | 92 | 1011.7 |
| 20260509081008 | 22 | 42 | 1.6 | 3.2 | 0.00 | 0.00 | 0.00 | 92 | 1011.7 |
| 20260509080508 | 22 | 42 | 3.2 | 4.8 | 0.00 | 0.00 | 0.00 | 92 | 1011.7 |
| 20260509080011 | 22 | 42 | 3.2 | 6.4 | 0.00 | 0.00 | 0.00 | 92 | 1011.7 |
| 20260509075504 | 22 | 46 | 1.6 | 6.4 | 0.00 | 0.00 | 0.00 | 91 | 1011.6 |
| 20260509074951 | 22 | 111 | 1.6 | 4.8 | 0.00 | 0.00 | 0.00 | 91 | 1011.6 |
| 20260509074443 | 22 | 111 | 1.6 | 4.8 | 0.00 | 0.00 | 0.00 | 91 | 1011.5 |
| 20260509073941 | 22 | 111 | 1.6 | 4.8 | 0.00 | 0.00 | 0.00 | 91 | 1011.5 |
| 20260509073435 | 22 | 121 | 1.6 | 4.8 | 0.00 | 0.00 | 0.00 | 91 | 1011.5 |
| 20260509072936 | 23 | 121 | 1.6 | 4.8 | 0.00 | 0.00 | 0.00 | 91 | 1011.6 |
| 20260509072434 | 23 | 122 | 1.6 | 4.8 | 0.00 | 0.00 | 0.00 | 91 | 1011.7 |
| 20260509071933 | 23 | 148 | 1.6 | 4.8 | 0.00 | 0.00 | 0.00 | 91 | 1011.7 |
| 20260509071432 | 23 | 148 | 1.6 | 4.8 | 0.00 | 0.00 | 0.00 | 91 | 1011.7 |
| 20260509070930 | 23 | 151 | 1.6 | 6.4 | 0.00 | 0.00 | 0.00 | 91 | 1011.8 |
| 20260509070430 | 23 | 153 | 3.2 | 9.7 | 0.00 | 0.00 | 0.00 | 91 | 1011.9 |
| 20260509065930 | 23 | 162 | 4.8 | 9.7 | 0.00 | 0.00 | 0.00 | 91 | 1011.9 |
| 20260509065428 | 23 | 146 | 4.8 | 11.3 | 0.00 | 0.00 | 0.00 | 91 | 1011.9 |
| 20260509064931 | 23 | 142 | 4.8 | 11.3 | 0.00 | 0.00 | 0.00 | 91 | 1011.9 |
| 20260509064426 | 23 | 128 | 3.2 | 8.0 | 0.00 | 0.00 | 0.00 | 91 | 1011.7 |
| 20260509064204 | 23 | 137 | 3.2 | 9.7 | 0.00 | 0.00 | 0.00 | 91 | 1011.4 |
| 20260509063421 | 23 | 137 | 4.8 | 12.9 | 0.00 | 0.00 | 0.00 | 91 | 1011.5 |
| 20260509062921 | 23 | 165 | 6.4 | 12.9 | 0.00 | 0.00 | 0.00 | 91 | 1011.6 |
| 20260509062418 | 23 | 128 | 6.4 | 12.9 | 0.00 | 0.00 | 0.00 | 91 | 1011.5 |
| 20260509061917 | 23 | 141 | 8.0 | 14.5 | 0.00 | 0.00 | 0.00 | 91 | 1011.6 |
| 20260509061416 | 23 | 162 | 9.7 | 19.3 | 0.00 | 0.00 | 0.00 | 91 | 1011.5 |
| 20260509060909 | 22 | 125 | 11.3 | 19.3 | 0.00 | 0.00 | 0.00 | 91 | 1011.3 |
| 20260509060652 | 22 | 150 | 8.0 | 19.3 | 0.00 | 0.00 | 0.00 | 91 | 1011.3 |
| 20260509055907 | 22 | 142 | 6.4 | 14.5 | 0.00 | 0.00 | 0.00 | 91 | 1011.1 |
| 20260509055406 | 22 | 157 | 6.4 | 14.5 | 0.00 | 0.00 | 0.00 | 91 | 1011.1 |
| 20260509054907 | 22 | 149 | 8.0 | 16.1 | 0.00 | 0.00 | 0.00 | 91 | 1011.1 |
| 20260509054406 | 22 | 148 | 8.0 | 16.1 | 0.00 | 0.00 | 0.00 | 90 | 1011.0 |
| 20260509054149 | 22 | 154 | 9.7 | 19.3 | 0.00 | 0.00 | 0.00 | 90 | 1011.2 |
| 20260509053401 | 22 | 144 | 9.7 | 19.3 | 0.00 | 0.00 | 0.00 | 90 | 1011.2 |
| 20260509052902 | 22 | 148 | 9.7 | 17.7 | 0.00 | 0.00 | 0.00 | 90 | 1011.0 |
| 20260509052637 | 22 | 155 | 9.7 | 17.7 | 0.00 | 0.00 | 0.00 | 90 | 1010.8 |
| 20260509051902 | 22 | 144 | 8.0 | 14.5 | 0.00 | 0.00 | 0.00 | 90 | 1010.7 |
| 20260509051401 | 22 | 123 | 8.0 | 14.5 | 0.00 | 0.00 | 0.00 | 89 | 1010.5 |
| 20260509050903 | 22 | 154 | 8.0 | 14.5 | 0.00 | 0.00 | 0.00 | 89 | 1010.6 |
| 20260509050401 | 22 | 149 | 8.0 | 16.1 | 0.00 | 0.00 | 0.00 | 89 | 1010.4 |
| 20260509045959 | 22 | 138 | 8.0 | 16.1 | 0.00 | 0.00 | 0.00 | 89 | 1010.5 |
| 20260509045721 | 22 | 133 | 6.4 | 12.9 | 0.00 | 0.00 | 0.00 | 88 | 1010.5 |